Pinehurst, Georgia
Current Conditions -  °F | °C
As of 9:55 AM on Thursday 23 Oct 2014 (Local Time) from KCKF Reporting Station
Clear Clear  
Wind Chill: 56°   Ceiling: Unl
Heat Index: 56°   Visibility: 10mi
Dew Point: 45°   Wind: 5mph
Humidity: 66%   Direction: 80°E
Pressure: 30.15"   Gusts: NA
Location:  32.2°N, 83.76°W
Report Text: KCKF 231355Z AUTO 08004KT 10SM CLR 13/07 A3015 RMK AO2 T01340072
Loading
Personal Weather Stations






























Interactive Weather Map
Tropical Storm Tracking
New forecast layout! Learn more

10-Day Weather Forecast

Advertisements
Track Severe Weather on mobile